KSUA/SUA METAR and TAF weather

Enter ICAO airport designator
Station Type Date Time Source
KSUA METAR 2019/04/19 10:15 UTC NOAA

KSUA 191015Z AUTO 17006KT 10SM SCT070 SCT085 25/20 A2991 RMK AO2


Station Type Date Time Source
KSUA Decoded METAR 2019/04/19 10:15 UTC NOAA

Stuart, Witham Field Airport, FL, United States (KSUA) 27-10-54N 080-13-16W
Apr 19, 2019 - 06:15 AM EDT / 2019.04.19 1015 UTC
Wind: from the S (170 degrees) at 7 MPH (6 KT):0
Visibility: 10 mile(s):0
Sky conditions: partly cloudy
Temperature: 77 F (25 C)
Dew Point: 68 F (20 C)
Relative Humidity: 73%
Pressure (altimeter): 29.91 in. Hg (1012 hPa)
ob: KSUA 191015Z AUTO 17006KT 10SM SCT070 SCT085 25/20 A2991 RMK AO2
cycle: 10

Station Type Date Time Source
KSUA TAF 2019/04/19 06:10 UTC NOAA

TAF KSUA 190608Z 1906/2006 15010G16KT P6SM BKN080 WS015/18035KT
FM191300 19020G30KT P6SM SCT015 BKN040 OVC060
FM191900 21024G34KT P6SM VCTS BKN035CB BKN060 OVC150
TEMPO 1921/1923 2SM +TSRA BKN025CB OVC035
FM200000 26009KT P6SM VCSH BKN025
TEMPO 2002/2006 3SM SHRA

Example: see airport list